createdAt,value
2018-03-04T00:00:48.503Z,68.70
2018-03-04T00:03:16.844Z,68.65
2018-03-04T00:05:45.197Z,68.54
2018-03-04T00:08:13.556Z,68.36
2018-03-04T00:10:41.872Z,68.20
2018-03-04T00:13:10.338Z,68.17
2018-03-04T00:15:38.638Z,68.11
2018-03-04T00:18:06.970Z,67.99
2018-03-04T00:20:35.299Z,67.86
2018-03-04T00:23:03.608Z,67.72
2018-03-04T00:25:31.923Z,67.68
2018-03-04T00:28:00.247Z,67.67
2018-03-04T00:30:28.581Z,67.63
2018-03-04T00:32:56.923Z,67.63
2018-03-04T00:35:25.364Z,67.63
2018-03-04T00:37:53.667Z,67.57
2018-03-04T00:40:22.078Z,67.62
2018-03-04T00:42:50.408Z,67.58
2018-03-04T00:45:18.767Z,67.71
2018-03-04T00:47:47.113Z,67.77
2018-03-04T00:50:15.460Z,67.88
2018-03-04T00:52:43.784Z,68.03
2018-03-04T00:55:12.880Z,68.22
2018-03-04T00:57:42.679Z,68.30
2018-03-04T01:00:11.139Z,68.46
2018-03-04T01:02:39.451Z,68.57
2018-03-04T01:05:08.586Z,68.65
2018-03-04T01:07:36.923Z,68.68
2018-03-04T01:10:05.255Z,68.71
2018-03-04T01:12:33.593Z,68.73
2018-03-04T01:15:02.696Z,68.86
2018-03-04T01:17:31.777Z,68.92
2018-03-04T01:20:00.118Z,68.96
2018-03-04T01:22:28.670Z,69.12
2018-03-04T01:24:57.811Z,68.97
2018-03-04T01:27:26.143Z,69.00
2018-03-04T01:29:54.469Z,68.95
2018-03-04T01:32:22.984Z,68.74
2018-03-04T01:34:51.303Z,68.63
2018-03-04T01:37:20.375Z,68.44
2018-03-04T01:39:48.753Z,68.18
2018-03-04T01:42:17.073Z,68.02
2018-03-04T01:44:46.280Z,67.92
2018-03-04T01:47:14.579Z,67.82
2018-03-04T01:49:42.901Z,67.78
2018-03-04T01:52:11.215Z,67.69
2018-03-04T01:54:40.329Z,67.56
2018-03-04T01:57:08.658Z,67.53
2018-03-04T01:59:36.983Z,67.56
2018-03-04T02:02:05.327Z,67.52
2018-03-04T02:04:33.637Z,67.64
2018-03-04T02:07:01.997Z,67.87
2018-03-04T02:09:31.117Z,68.00
2018-03-04T02:12:00.191Z,68.12
2018-03-04T02:14:28.495Z,68.26
2018-03-04T02:16:57.574Z,68.34
2018-03-04T02:19:26.647Z,68.45
2018-03-04T02:21:55.245Z,68.37
2018-03-04T02:24:23.547Z,68.38
2018-03-04T02:26:52.655Z,68.26
2018-03-04T02:29:20.987Z,68.21
2018-03-04T02:31:49.308Z,68.13
2018-03-04T02:34:18.878Z,68.06
2018-03-04T02:36:47.206Z,67.94
2018-03-04T02:39:16.294Z,67.95
2018-03-04T02:41:45.813Z,67.80
2018-03-04T02:44:14.889Z,67.69
2018-03-04T02:46:43.199Z,67.58
2018-03-04T02:49:11.529Z,67.45
2018-03-04T02:51:39.852Z,67.51
2018-03-04T02:54:08.927Z,67.59
2018-03-04T02:56:37.251Z,67.59
2018-03-04T02:59:05.589Z,67.53
2018-03-04T03:01:34.696Z,67.51
2018-03-04T03:04:03.932Z,67.36
2018-03-04T03:06:32.236Z,67.35
2018-03-04T03:09:00.589Z,67.45
2018-03-04T03:11:28.899Z,67.50
2018-03-04T03:13:58.285Z,67.45
2018-03-04T03:16:26.713Z,67.54
2018-03-04T03:18:55.792Z,67.54
2018-03-04T03:21:24.375Z,67.61
2018-03-04T03:23:52.683Z,67.60
2018-03-04T03:26:21.015Z,67.54
2018-03-04T03:28:49.328Z,67.52
2018-03-04T03:31:17.666Z,67.66
2018-03-04T03:33:46.001Z,67.81
2018-03-04T03:36:14.339Z,68.17
2018-03-04T03:38:42.655Z,68.43
2018-03-04T03:41:11.001Z,68.90
2018-03-04T03:43:39.437Z,69.25
2018-03-04T03:46:09.365Z,69.54
2018-03-04T03:48:38.449Z,69.95
2018-03-04T03:51:07.561Z,70.05
2018-03-04T03:53:36.669Z,70.27
2018-03-04T03:56:04.984Z,70.61
2018-03-04T03:58:33.318Z,70.85
2018-03-04T04:01:01.647Z,70.86
2018-03-04T04:03:29.982Z,70.84
2018-03-04T04:05:59.063Z,70.96
2018-03-04T04:08:28.183Z,70.89
2018-03-04T04:10:56.501Z,71.04
2018-03-04T04:13:24.799Z,71.09
2018-03-04T04:15:53.132Z,71.19
2018-03-04T04:18:21.461Z,71.15
2018-03-04T04:20:49.785Z,71.28
2018-03-04T04:23:18.106Z,71.27
2018-03-04T04:25:46.458Z,71.20
2018-03-04T04:28:14.775Z,71.08
2018-03-04T04:30:43.099Z,71.14
2018-03-04T04:33:12.178Z,71.21
2018-03-04T04:35:40.493Z,71.22
2018-03-04T04:38:08.809Z,71.21
2018-03-04T04:40:37.154Z,71.20
2018-03-04T04:43:05.477Z,71.15
2018-03-04T04:45:33.815Z,70.99
2018-03-04T04:48:02.197Z,71.06
2018-03-04T04:50:30.537Z,71.05
2018-03-04T04:52:58.867Z,70.96
2018-03-04T04:55:27.197Z,70.99
2018-03-04T04:57:55.601Z,71.01
2018-03-04T05:00:24.700Z,71.23
2018-03-04T05:02:53.774Z,71.39
2018-03-04T05:05:22.119Z,71.44
2018-03-04T05:07:50.562Z,71.74
2018-03-04T05:10:20.448Z,71.94
2018-03-04T05:12:48.920Z,72.11
2018-03-04T05:15:17.281Z,72.06
2018-03-04T05:17:45.601Z,71.89
2018-03-04T05:20:13.909Z,71.67
2018-03-04T05:22:43.055Z,71.64
2018-03-04T05:25:11.406Z,71.66
2018-03-04T05:27:39.700Z,71.68
2018-03-04T05:30:08.043Z,71.54
2018-03-04T05:32:37.130Z,71.38
2018-03-04T05:35:05.461Z,71.20
2018-03-04T05:37:33.774Z,71.03
2018-03-04T05:40:02.105Z,70.84
2018-03-04T05:42:30.446Z,70.63
2018-03-04T05:44:58.919Z,70.32
2018-03-04T05:47:27.475Z,70.03
2018-03-04T05:49:55.784Z,69.79
2018-03-04T05:52:24.109Z,69.82
2018-03-04T05:54:52.457Z,70.04
2018-03-04T05:57:20.799Z,70.25
2018-03-04T05:59:49.146Z,70.46
2018-03-04T06:02:17.508Z,70.79
2018-03-04T06:04:46.610Z,71.00
2018-03-04T06:07:14.920Z,71.30
2018-03-04T06:09:43.246Z,71.60
2018-03-04T06:12:11.575Z,71.93
2018-03-04T06:14:39.929Z,72.16
2018-03-04T06:17:08.258Z,72.41
2018-03-04T06:19:36.600Z,72.23
2018-03-04T06:22:05.718Z,72.60
2018-03-04T06:24:34.106Z,72.65
2018-03-04T06:27:02.400Z,72.96
2018-03-04T06:29:30.751Z,73.09
2018-03-04T06:31:59.844Z,72.97
2018-03-04T06:34:28.208Z,73.40
2018-03-04T06:36:57.318Z,73.75
2018-03-04T06:39:26.509Z,73.85
2018-03-04T06:41:54.863Z,73.74
2018-03-04T06:44:27.196Z,73.51
2018-03-04T06:46:55.530Z,73.14
2018-03-04T06:49:23.857Z,72.69
2018-03-04T06:51:52.223Z,72.24
2018-03-04T06:54:21.344Z,71.99
2018-03-04T06:56:49.672Z,71.50
2018-03-04T06:59:18.781Z,71.24
2018-03-04T07:01:47.114Z,70.97
2018-03-04T07:04:15.472Z,70.80
2018-03-04T07:06:44.534Z,70.61
2018-03-04T07:09:12.905Z,70.28
2018-03-04T07:11:41.291Z,70.00
2018-03-04T07:14:09.642Z,69.70
2018-03-04T07:16:38.035Z,69.55
2018-03-04T07:19:06.347Z,69.48
2018-03-04T07:21:34.656Z,69.08
2018-03-04T07:24:03.732Z,68.86
2018-03-04T07:26:32.892Z,68.97
2018-03-04T07:29:01.207Z,68.35
2018-03-04T07:31:29.576Z,68.01
2018-03-04T07:33:57.906Z,67.65
2018-03-04T07:36:26.307Z,67.20
2018-03-04T07:38:54.632Z,67.01
2018-03-04T07:41:22.948Z,66.57
2018-03-04T07:43:52.030Z,66.06
2018-03-04T07:46:21.102Z,65.71
2018-03-04T07:48:49.418Z,65.48
2018-03-04T07:51:18.511Z,65.21
2018-03-04T07:53:47.588Z,65.10
2018-03-04T07:56:15.914Z,64.89
2018-03-04T07:58:45.064Z,64.39
2018-03-04T08:01:13.507Z,63.98
2018-03-04T08:03:43.477Z,63.44
2018-03-04T08:06:11.808Z,63.06
2018-03-04T08:08:40.266Z,62.26
2018-03-04T08:11:09.341Z,62.03
2018-03-04T08:13:37.677Z,61.65
2018-03-04T08:16:06.007Z,60.95
2018-03-04T08:18:34.368Z,60.54
2018-03-04T08:21:02.662Z,60.31
2018-03-04T08:23:31.749Z,60.07
2018-03-04T08:26:17.772Z,59.69
2018-03-04T08:28:46.070Z,59.31
2018-03-04T08:31:14.402Z,59.05
2018-03-04T08:33:42.739Z,58.63
2018-03-04T08:36:11.167Z,58.01
2018-03-04T08:38:40.296Z,57.62
2018-03-04T08:41:08.617Z,57.29
2018-03-04T08:43:36.918Z,56.75
2018-03-04T08:46:05.232Z,56.24
2018-03-04T08:48:33.539Z,55.71
2018-03-04T08:51:03.158Z,55.34
2018-03-04T08:53:31.467Z,54.94
2018-03-04T08:56:00.820Z,54.32
2018-03-04T08:58:29.219Z,53.86
2018-03-04T09:00:57.532Z,53.48
2018-03-04T09:03:25.913Z,52.43
2018-03-04T09:05:54.229Z,52.03
2018-03-04T09:08:23.310Z,51.50
2018-03-04T09:10:52.434Z,50.92
2018-03-04T09:13:21.522Z,50.85
2018-03-04T09:15:50.650Z,50.65
2018-03-04T09:18:19.154Z,50.88
2018-03-04T09:20:47.516Z,51.03
2018-03-04T09:23:15.829Z,51.20
2018-03-04T09:25:44.160Z,51.65
2018-03-04T09:28:13.358Z,51.97
2018-03-04T09:30:42.446Z,52.26
2018-03-04T09:33:10.773Z,52.58
2018-03-04T09:35:39.092Z,52.83
2018-03-04T09:38:08.167Z,53.08
2018-03-04T09:40:36.505Z,53.19
2018-03-04T09:43:04.830Z,53.33
2018-03-04T09:45:33.197Z,53.69
2018-03-04T09:48:01.536Z,53.96
2018-03-04T09:50:30.689Z,54.08
2018-03-04T09:52:59.177Z,54.04
2018-03-04T09:55:28.300Z,54.11
2018-03-04T09:57:56.636Z,54.13
2018-03-04T10:00:25.760Z,54.02
2018-03-04T10:02:54.055Z,53.97
2018-03-04T10:05:23.113Z,54.04
2018-03-04T10:08:00.894Z,54.01
2018-03-04T10:10:29.376Z,54.01
2018-03-04T10:12:57.684Z,53.78
2018-03-04T10:15:26.002Z,53.54
2018-03-04T10:17:55.151Z,53.48
2018-03-04T10:20:23.444Z,53.41
2018-03-04T10:22:51.764Z,53.31
2018-03-04T10:25:20.859Z,53.09
2018-03-04T10:27:50.701Z,52.81
2018-03-04T10:30:19.040Z,52.66
2018-03-04T10:32:47.354Z,52.44
2018-03-04T10:35:16.408Z,52.40
2018-03-04T10:37:44.725Z,52.28
2018-03-04T10:40:13.060Z,52.21
2018-03-04T10:42:41.372Z,52.06
2018-03-04T10:45:10.454Z,51.87
2018-03-04T10:47:38.770Z,51.65
2018-03-04T10:50:07.130Z,51.43
2018-03-04T10:52:35.576Z,50.88
2018-03-04T10:55:04.290Z,50.34
2018-03-04T10:57:32.668Z,50.25
2018-03-04T11:00:01.022Z,49.98
2018-03-04T11:02:34.986Z,49.76
2018-03-04T11:05:03.314Z,49.39
2018-03-04T11:07:31.622Z,48.85
2018-03-04T11:10:00.032Z,48.13
2018-03-04T11:12:28.363Z,47.69
2018-03-04T11:14:56.665Z,47.21
2018-03-04T11:17:25.034Z,46.38
2018-03-04T11:19:53.483Z,45.53
2018-03-04T11:22:21.803Z,45.00
2018-03-04T11:24:50.118Z,44.41
2018-03-04T11:27:18.427Z,44.12
2018-03-04T11:29:46.790Z,43.78
2018-03-04T11:32:15.112Z,43.26
2018-03-04T11:34:43.444Z,42.87
2018-03-04T11:37:11.794Z,42.31
2018-03-04T11:39:40.172Z,41.84
2018-03-04T11:42:08.518Z,41.53
2018-03-04T11:44:37.613Z,41.06
2018-03-04T11:47:07.339Z,40.37
2018-03-04T11:49:35.664Z,39.58
2018-03-04T11:52:03.996Z,39.23
2018-03-04T11:54:32.325Z,38.91
2018-03-04T11:57:00.652Z,38.63
2018-03-04T11:59:29.766Z,37.56
2018-03-04T12:01:58.210Z,36.41
2018-03-04T12:04:26.543Z,35.73
2018-03-04T12:06:54.883Z,35.60
2018-03-04T12:09:23.223Z,35.25
2018-03-04T12:11:51.580Z,35.09
2018-03-04T12:14:19.900Z,34.78
2018-03-04T12:16:48.222Z,34.51
2018-03-04T12:19:17.324Z,34.13
2018-03-04T12:21:46.399Z,34.00
2018-03-04T12:24:15.685Z,33.72
2018-03-04T12:26:43.990Z,33.34
2018-03-04T12:29:13.085Z,32.83
2018-03-04T12:31:43.008Z,32.41
2018-03-04T12:34:12.144Z,32.14
2018-03-04T12:36:40.499Z,31.71
2018-03-04T12:39:08.825Z,31.33
2018-03-04T12:41:37.165Z,31.10
2018-03-04T12:44:06.261Z,30.34
2018-03-04T12:46:35.364Z,29.65
2018-03-04T12:49:03.715Z,28.92
2018-03-04T12:51:33.588Z,28.52
2018-03-04T12:54:01.911Z,28.38
2018-03-04T12:56:31.005Z,27.72
2018-03-04T12:58:59.322Z,27.67
2018-03-04T13:01:28.405Z,27.46
2018-03-04T13:03:57.589Z,27.44
2018-03-04T13:06:25.931Z,27.77
2018-03-04T13:08:54.235Z,28.29
2018-03-04T13:11:22.539Z,28.69
2018-03-04T13:13:51.632Z,28.94
2018-03-04T13:16:21.597Z,28.68
2018-03-04T13:18:49.936Z,27.95
2018-03-04T13:21:18.263Z,26.85
2018-03-04T13:23:46.583Z,25.07
2018-03-04T13:26:14.899Z,24.85
2018-03-04T13:28:44.007Z,24.60
2018-03-04T13:31:12.415Z,24.54
2018-03-04T13:33:41.379Z,24.47
2018-03-04T13:36:09.714Z,24.60
2018-03-04T13:38:38.041Z,24.83
2018-03-04T13:41:07.140Z,25.06
2018-03-04T13:43:36.226Z,25.40
2018-03-04T13:46:04.590Z,25.62
2018-03-04T13:48:32.919Z,25.61
2018-03-04T13:51:01.245Z,25.90
2018-03-04T13:53:29.567Z,25.88
2018-03-04T13:55:58.665Z,25.81
2018-03-04T13:58:27.765Z,25.92
2018-03-04T14:00:56.852Z,25.91
2018-03-04T14:03:25.259Z,25.92
2018-03-04T14:05:53.589Z,26.07
2018-03-04T14:08:21.945Z,26.34
2018-03-04T14:10:50.336Z,26.79
2018-03-04T14:13:18.661Z,27.40
2018-03-04T14:15:47.720Z,27.89
2018-03-04T14:18:16.046Z,28.40
2018-03-04T14:20:45.137Z,28.94
2018-03-04T14:23:14.275Z,29.09
2018-03-04T14:25:42.761Z,29.15
2018-03-04T14:28:11.105Z,29.21
2018-03-04T14:30:39.433Z,29.16
2018-03-04T14:33:07.957Z,29.25
2018-03-04T14:35:36.282Z,29.59
2018-03-04T14:38:04.597Z,29.95
2018-03-04T14:40:32.921Z,30.24
2018-03-04T14:43:02.010Z,30.69
2018-03-04T14:45:30.336Z,31.01
2018-03-04T14:48:04.979Z,31.34
2018-03-04T14:50:34.166Z,31.74
2018-03-04T14:53:05.661Z,32.23
2018-03-04T14:55:34.060Z,32.70
2018-03-04T14:58:05.205Z,33.22
2018-03-04T15:00:34.837Z,33.86
2018-03-04T15:03:03.144Z,34.29
2018-03-04T15:05:31.559Z,34.66
2018-03-04T15:07:59.911Z,34.88
2018-03-04T15:10:28.855Z,35.08
2018-03-04T15:12:57.213Z,35.49
2018-03-04T15:15:25.636Z,35.70
2018-03-04T15:17:53.961Z,35.97
2018-03-04T15:20:22.265Z,36.40
2018-03-04T15:22:50.588Z,36.85
2018-03-04T15:25:18.894Z,37.07
2018-03-04T15:27:47.234Z,37.29
2018-03-04T15:30:15.579Z,37.63
2018-03-04T15:32:43.883Z,38.01
2018-03-04T15:35:13.009Z,38.43
2018-03-04T15:37:41.331Z,38.86
2018-03-04T15:40:09.643Z,39.37
2018-03-04T15:42:38.726Z,39.77
2018-03-04T15:45:11.166Z,40.21
2018-03-04T15:47:42.399Z,40.67
2018-03-04T15:50:13.795Z,41.06
2018-03-04T15:52:45.862Z,41.39
2018-03-04T15:55:21.099Z,41.83
2018-03-04T15:57:51.207Z,42.28
2018-03-04T16:00:23.074Z,42.72
2018-03-04T16:02:55.504Z,43.38
2018-03-04T16:05:25.145Z,43.75
2018-03-04T16:07:55.115Z,44.15
2018-03-04T16:10:25.703Z,44.59
2018-03-04T16:12:55.365Z,45.05
2018-03-04T16:15:28.337Z,45.53
2018-03-04T16:17:57.005Z,45.94
2018-03-04T16:20:26.751Z,46.54
2018-03-04T16:22:59.120Z,46.88
2018-03-04T16:25:33.427Z,47.28
2018-03-04T16:28:04.865Z,47.52
2018-03-04T16:30:34.921Z,47.98
2018-03-04T16:33:04.637Z,48.22
2018-03-04T16:35:33.727Z,48.55
2018-03-04T16:38:02.079Z,49.01
2018-03-04T16:40:30.556Z,49.47
2018-03-04T16:42:58.864Z,49.77
2018-03-04T16:45:29.557Z,50.14
2018-03-04T16:47:58.323Z,50.52
2018-03-04T16:50:26.671Z,50.96
2018-03-04T16:52:55.443Z,51.30
2018-03-04T16:55:25.950Z,51.59
2018-03-04T16:57:57.545Z,51.87
2018-03-04T17:00:28.280Z,52.13
2018-03-04T17:02:56.622Z,52.27
2018-03-04T17:05:25.003Z,52.66
2018-03-04T17:07:54.103Z,52.86
2018-03-04T17:10:22.488Z,53.18
2018-03-04T17:12:51.687Z,53.48
2018-03-04T17:15:20.728Z,53.76
2018-03-04T17:17:49.066Z,54.03
2018-03-04T17:20:17.384Z,54.44
2018-03-04T17:22:45.708Z,55.35
2018-03-04T17:25:14.495Z,55.23
2018-03-04T17:27:42.867Z,55.52
2018-03-04T17:30:12.937Z,55.76
2018-03-04T17:32:42.698Z,55.97
2018-03-04T17:35:13.235Z,56.00
2018-03-04T17:37:41.817Z,56.37
2018-03-04T17:40:11.879Z,56.33
2018-03-04T17:42:40.260Z,56.47
2018-03-04T17:45:09.479Z,56.67
2018-03-04T17:47:41.986Z,57.15
2018-03-04T17:50:11.116Z,57.23
2018-03-04T17:52:39.494Z,57.17
2018-03-04T17:55:07.798Z,57.33
2018-03-04T17:57:36.103Z,57.34
2018-03-04T18:00:04.427Z,57.39
2018-03-04T18:02:33.497Z,57.38
2018-03-04T18:05:01.836Z,57.45
2018-03-04T18:07:30.143Z,57.58
2018-03-04T18:09:58.461Z,57.55
2018-03-04T18:12:26.777Z,57.93
2018-03-04T18:14:55.093Z,58.14
2018-03-04T18:17:23.413Z,58.35
2018-03-04T18:19:52.504Z,58.62
2018-03-04T18:22:21.602Z,58.96
2018-03-04T18:24:49.910Z,59.08
2018-03-04T18:27:18.253Z,59.23
2018-03-04T18:29:47.338Z,59.28
2018-03-04T18:32:15.885Z,59.14
2018-03-04T18:34:44.211Z,59.06
2018-03-04T18:37:12.499Z,59.07
2018-03-04T18:39:41.583Z,59.05
2018-03-04T18:42:09.907Z,59.07
2018-03-04T18:44:38.229Z,59.23
2018-03-04T18:47:06.536Z,59.52
2018-03-04T18:49:35.689Z,59.87
2018-03-04T18:52:04.026Z,60.32
2018-03-04T18:54:33.106Z,60.95
2018-03-04T18:57:01.489Z,61.24
2018-03-04T18:59:30.298Z,61.55
2018-03-04T19:01:58.623Z,61.89
2018-03-04T19:04:26.927Z,62.25
2018-03-04T19:06:55.248Z,62.64
2018-03-04T19:09:24.326Z,63.30
2018-03-04T19:11:52.643Z,64.01
2018-03-04T19:14:21.750Z,64.52
2018-03-04T19:16:50.080Z,65.01
2018-03-04T19:19:18.379Z,65.64
2018-03-04T19:21:48.197Z,66.10
2018-03-04T19:24:17.379Z,68.12
2018-03-04T19:26:45.741Z,68.05
2018-03-04T19:29:14.070Z,68.03
2018-03-04T19:31:43.148Z,68.21
2018-03-04T19:34:12.445Z,68.32
2018-03-04T19:36:42.270Z,68.56
2018-03-04T19:39:10.582Z,68.87
2018-03-04T19:41:39.721Z,69.37
2018-03-04T19:44:12.039Z,69.80
2018-03-04T19:46:45.189Z,70.12
2018-03-04T19:49:18.129Z,70.44
2018-03-04T19:51:46.944Z,70.82
2018-03-04T19:54:18.868Z,71.17
2018-03-04T19:56:47.817Z,71.58
2018-03-04T19:59:17.961Z,71.95
2018-03-04T20:01:48.913Z,72.19
2018-03-04T20:04:19.368Z,72.53
2018-03-04T20:06:48.908Z,72.93
2018-03-04T20:09:19.018Z,73.28
2018-03-04T20:11:48.745Z,73.61
2018-03-04T20:14:18.953Z,73.97
2018-03-04T20:16:48.963Z,74.31
2018-03-04T20:19:20.138Z,74.59
2018-03-04T20:21:48.525Z,75.07
2018-03-04T20:24:16.872Z,75.41
2018-03-04T20:26:45.207Z,75.86
2018-03-04T20:29:13.511Z,76.03
2018-03-04T20:31:42.632Z,76.35
2018-03-04T20:34:11.584Z,76.68
2018-03-04T20:36:39.885Z,76.94
2018-03-04T20:39:08.963Z,77.39
2018-03-04T20:41:37.310Z,77.82
2018-03-04T20:44:05.615Z,78.18
2018-03-04T20:46:33.934Z,78.59
2018-03-04T20:49:03.893Z,78.86
2018-03-04T20:51:32.187Z,79.26
2018-03-04T20:54:00.508Z,79.65
2018-03-04T20:56:29.583Z,80.01
2018-03-04T20:58:57.919Z,80.17
2018-03-04T21:01:26.236Z,80.73
2018-03-04T21:03:54.532Z,81.04
2018-03-04T21:06:22.836Z,81.28
2018-03-04T21:08:51.907Z,81.58
2018-03-04T21:11:20.205Z,81.89
2018-03-04T21:13:49.349Z,82.05
2018-03-04T21:16:18.374Z,82.19
2018-03-04T21:18:46.694Z,82.30
2018-03-04T21:21:15.068Z,82.61
2018-03-04T21:26:18.533Z,82.94
2018-03-04T21:28:46.843Z,83.01
2018-03-04T21:31:15.139Z,83.19
2018-03-04T21:33:43.468Z,83.32
2018-03-04T21:36:11.779Z,83.44
2018-03-04T21:38:40.095Z,83.64
2018-03-04T21:41:09.309Z,83.76
2018-03-04T21:43:37.710Z,83.97
2018-03-04T21:46:06.098Z,84.09
2018-03-04T21:48:34.394Z,84.21
2018-03-04T21:51:02.714Z,84.27
2018-03-04T21:53:31.796Z,84.49
2018-03-04T21:56:00.148Z,84.67
2018-03-04T21:58:28.514Z,84.83
2018-03-04T22:00:56.816Z,84.88
2018-03-04T22:03:25.141Z,85.01
2018-03-04T22:05:54.260Z,84.93
2018-03-04T22:08:22.593Z,84.98
2018-03-04T22:10:51.010Z,85.03
2018-03-04T22:13:20.084Z,84.95
2018-03-04T22:15:48.404Z,84.85
2018-03-04T22:18:16.736Z,84.80
2018-03-04T22:20:45.848Z,84.70
2018-03-04T22:23:14.946Z,84.85
2018-03-04T22:25:43.300Z,84.75
2018-03-04T22:28:11.618Z,84.94
2018-03-04T22:30:40.689Z,85.22
2018-03-04T22:33:09.130Z,85.11
2018-03-04T22:35:37.458Z,85.06
2018-03-04T22:38:05.795Z,85.10
2018-03-04T22:40:34.100Z,85.10
2018-03-04T22:43:02.419Z,84.87
2018-03-04T22:45:31.502Z,84.80
2018-03-04T22:48:00.580Z,84.71
2018-03-04T22:50:28.890Z,84.84
2018-03-04T22:52:57.982Z,85.14
2018-03-04T22:55:26.289Z,85.14
2018-03-04T22:57:55.395Z,85.14
2018-03-04T23:00:23.730Z,85.03
2018-03-04T23:02:52.089Z,85.04
2018-03-04T23:05:21.126Z,84.85
2018-03-04T23:07:49.456Z,84.90
2018-03-04T23:10:17.775Z,85.39
2018-03-04T23:12:46.100Z,85.62
2018-03-04T23:15:14.426Z,85.85
2018-03-04T23:17:43.069Z,85.86
2018-03-04T23:20:11.400Z,85.73
2018-03-04T23:22:39.720Z,85.60
2018-03-04T23:25:08.821Z,85.91
2018-03-04T23:27:37.923Z,86.13
2018-03-04T23:30:06.250Z,85.94
2018-03-04T23:32:34.554Z,86.02
2018-03-04T23:35:02.868Z,85.98
2018-03-04T23:37:31.191Z,86.02
2018-03-04T23:39:59.635Z,86.03
2018-03-04T23:42:28.653Z,86.17
2018-03-04T23:44:57.005Z,86.05
2018-03-04T23:47:26.077Z,86.30
2018-03-04T23:49:54.393Z,86.33
2018-03-04T23:52:22.730Z,86.25
2018-03-04T23:54:51.014Z,86.29
2018-03-04T23:57:19.355Z,86.44
2018-03-04T23:59:47.675Z,86.45
